createdAt,value
2023-05-21T00:01:19.337Z,8.05
2023-05-21T00:04:09.566Z,8.57
2023-05-21T00:06:56.620Z,8.80
2023-05-21T00:09:43.766Z,8.13
2023-05-21T00:12:32.215Z,8.90
2023-05-21T00:15:19.319Z,8.35
2023-05-21T00:18:06.573Z,8.05
2023-05-21T00:20:54.397Z,8.20
2023-05-21T00:23:42.725Z,8.00
2023-05-21T00:26:29.810Z,8.43
2023-05-21T00:29:17.723Z,7.78
2023-05-21T00:32:05.820Z,8.35
2023-05-21T00:34:54.605Z,8.77
2023-05-21T00:37:42.526Z,8.60
2023-05-21T00:40:31.044Z,8.60
2023-05-21T00:43:18.128Z,8.38
2023-05-21T00:46:05.493Z,9.00
2023-05-21T00:48:52.757Z,8.85
2023-05-21T00:51:40.187Z,8.63
2023-05-21T00:54:28.021Z,8.45
2023-05-21T00:57:16.390Z,8.75
2023-05-21T01:00:07.330Z,8.35
2023-05-21T01:02:54.828Z,7.95
2023-05-21T01:05:45.121Z,7.63
2023-05-21T01:08:34.851Z,8.75
2023-05-21T01:11:30.402Z,8.43
2023-05-21T01:14:19.783Z,8.63
2023-05-21T01:17:10.380Z,8.68
2023-05-21T01:19:58.681Z,8.35
2023-05-21T01:22:56.043Z,8.38
2023-05-21T01:25:45.060Z,8.32
2023-05-21T01:28:34.343Z,9.00
2023-05-21T01:31:27.793Z,8.60
2023-05-21T01:34:20.636Z,8.63
2023-05-21T01:37:22.679Z,8.23
2023-05-21T01:40:34.288Z,7.72
2023-05-21T01:43:23.339Z,8.07
2023-05-21T01:46:13.352Z,8.07
2023-05-21T01:49:01.059Z,7.78
2023-05-21T01:51:49.121Z,9.00
2023-05-21T01:54:36.221Z,8.15
2023-05-21T01:57:23.418Z,9.10
2023-05-21T02:00:11.761Z,8.32
2023-05-21T02:03:07.985Z,8.50
2023-05-21T02:05:55.728Z,8.73
2023-05-21T02:08:42.873Z,8.27
2023-05-21T02:11:30.338Z,8.18
2023-05-21T02:14:17.735Z,8.00
2023-05-21T02:17:05.241Z,8.13
2023-05-21T02:19:52.483Z,8.40
2023-05-21T02:22:41.340Z,8.65
2023-05-21T02:25:28.488Z,8.07
2023-05-21T02:28:15.886Z,8.07
2023-05-21T02:31:03.082Z,9.05
2023-05-21T02:33:50.230Z,8.90
2023-05-21T02:36:37.306Z,8.80
2023-05-21T02:39:26.159Z,9.07
2023-05-21T02:42:13.352Z,8.88
2023-05-21T02:45:00.479Z,9.25
2023-05-21T02:47:47.597Z,8.77
2023-05-21T02:50:37.677Z,8.55
2023-05-21T02:53:25.275Z,9.05
2023-05-21T02:56:12.538Z,9.02
2023-05-21T02:58:59.570Z,10.35
2023-05-21T03:01:47.978Z,9.05
2023-05-21T03:04:38.822Z,9.25
2023-05-21T03:07:25.972Z,8.55
2023-05-21T03:10:13.621Z,8.93
2023-05-21T03:13:05.357Z,9.18
2023-05-21T03:15:56.370Z,8.82
2023-05-21T03:18:44.126Z,9.02
2023-05-21T03:21:32.297Z,9.63
2023-05-21T03:24:19.401Z,8.98
2023-05-21T03:27:07.070Z,9.48
2023-05-21T03:29:55.772Z,9.50
2023-05-21T03:32:45.139Z,10.02
2023-05-21T03:35:32.283Z,8.70
2023-05-21T03:38:19.641Z,9.00
2023-05-21T03:41:08.288Z,9.80
2023-05-21T03:43:55.789Z,10.02
2023-05-21T03:46:46.272Z,9.32
2023-05-21T03:49:48.327Z,9.60
2023-05-21T03:52:35.555Z,9.88
2023-05-21T03:55:23.012Z,9.25
2023-05-21T03:58:10.923Z,9.80
2023-05-21T04:00:58.321Z,9.70
2023-05-21T04:03:45.803Z,9.70
2023-05-21T04:06:34.255Z,10.60
2023-05-21T04:09:21.714Z,9.48
2023-05-21T04:12:08.906Z,9.25
2023-05-21T04:14:57.275Z,9.43
2023-05-21T04:17:45.390Z,9.52
2023-05-21T04:20:33.306Z,9.63
2023-05-21T04:23:23.340Z,10.13
2023-05-21T04:26:12.743Z,9.43
2023-05-21T04:29:03.681Z,9.80
2023-05-21T04:31:50.961Z,9.43
2023-05-21T04:34:39.591Z,9.40
2023-05-21T04:37:31.375Z,9.07
2023-05-21T04:40:24.197Z,9.13
2023-05-21T04:43:11.432Z,9.23
2023-05-21T04:45:58.951Z,9.77
2023-05-21T04:48:46.757Z,9.15
2023-05-21T04:51:33.860Z,9.43
2023-05-21T04:54:22.566Z,8.95
2023-05-21T04:57:10.812Z,9.40
2023-05-21T04:59:58.304Z,9.45
2023-05-21T05:02:46.323Z,9.20
2023-05-21T05:05:33.823Z,8.98
2023-05-21T05:08:21.040Z,8.65
2023-05-21T05:11:08.644Z,8.50
2023-05-21T05:13:56.042Z,8.65
2023-05-21T05:16:43.288Z,9.48
2023-05-21T05:19:31.816Z,8.88
2023-05-21T05:22:19.188Z,9.60
2023-05-21T05:25:07.658Z,9.68
2023-05-21T05:27:55.372Z,9.27
2023-05-21T05:30:42.935Z,10.00
2023-05-21T05:33:41.396Z,9.95
2023-05-21T05:36:28.619Z,9.32
2023-05-21T05:39:15.970Z,9.55
2023-05-21T05:42:03.578Z,8.68
2023-05-21T05:44:51.437Z,9.40
2023-05-21T05:47:38.559Z,9.55
2023-05-21T05:50:26.399Z,9.55
2023-05-21T05:53:13.550Z,9.07
2023-05-21T05:56:01.111Z,9.30
2023-05-21T05:58:50.546Z,9.20
2023-05-21T06:01:38.425Z,9.48
2023-05-21T06:04:29.816Z,9.65
2023-05-21T06:07:16.966Z,9.88
2023-05-21T06:10:05.754Z,10.60
2023-05-21T06:12:52.829Z,9.98
2023-05-21T06:15:43.109Z,11.18
2023-05-21T06:18:30.749Z,10.23
2023-05-21T06:21:17.984Z,10.50
2023-05-21T06:24:06.239Z,11.85
2023-05-21T06:26:53.422Z,11.60
2023-05-21T06:29:41.270Z,11.00
2023-05-21T06:32:28.591Z,11.38
2023-05-21T06:35:16.357Z,11.32
2023-05-21T06:38:03.618Z,11.00
2023-05-21T06:40:51.004Z,10.57
2023-05-21T06:43:53.667Z,10.57
2023-05-21T06:47:00.799Z,10.55
2023-05-21T06:49:47.984Z,11.32
2023-05-21T06:52:35.307Z,11.52
2023-05-21T06:55:23.673Z,12.27
2023-05-21T06:58:31.493Z,10.88
2023-05-21T07:01:19.407Z,11.70
2023-05-21T07:04:06.513Z,11.73
2023-05-21T07:06:54.510Z,11.75
2023-05-21T07:09:43.397Z,13.07
2023-05-21T07:12:30.531Z,12.68
2023-05-21T07:15:17.735Z,14.13
2023-05-21T07:18:05.004Z,12.05
2023-05-21T07:20:52.291Z,13.38
2023-05-21T07:23:40.997Z,13.05
2023-05-21T07:26:28.741Z,12.10
2023-05-21T07:29:15.952Z,13.52
2023-05-21T07:32:03.365Z,12.65
2023-05-21T07:34:51.583Z,12.60
2023-05-21T07:37:41.098Z,13.52
2023-05-21T07:40:28.321Z,13.18
2023-05-21T07:43:15.944Z,13.48
2023-05-21T07:46:03.129Z,14.38
2023-05-21T07:48:50.703Z,14.85
2023-05-21T07:51:37.794Z,13.80
2023-05-21T07:54:24.906Z,14.27
2023-05-21T07:57:12.520Z,14.10
2023-05-21T08:00:14.120Z,14.27
2023-05-21T08:03:08.584Z,14.85
2023-05-21T08:05:56.588Z,15.15
2023-05-21T08:08:43.845Z,13.82
2023-05-21T08:11:31.028Z,15.40
2023-05-21T08:14:18.199Z,15.13
2023-05-21T08:17:05.612Z,15.40
2023-05-21T08:19:52.750Z,15.30
2023-05-21T08:22:40.024Z,15.60
2023-05-21T08:25:27.629Z,14.70
2023-05-21T08:28:16.098Z,13.85
2023-05-21T08:31:03.248Z,14.52
2023-05-21T08:33:54.447Z,14.40
2023-05-21T08:36:50.196Z,14.18
2023-05-21T08:39:55.920Z,14.95
2023-05-21T08:42:45.845Z,14.00
2023-05-21T08:45:42.317Z,15.02
2023-05-21T08:48:31.217Z,14.98
2023-05-21T08:51:18.373Z,14.48
2023-05-21T08:54:09.321Z,13.75
2023-05-21T08:56:58.195Z,13.38
2023-05-21T08:59:45.728Z,13.98
2023-05-21T09:02:43.706Z,14.77
2023-05-21T09:05:35.272Z,14.05
2023-05-21T09:08:31.120Z,14.77
2023-05-21T09:11:22.443Z,13.80
2023-05-21T09:14:15.707Z,15.10
2023-05-21T09:17:20.159Z,14.15
2023-05-21T09:20:17.387Z,13.75
2023-05-21T09:23:16.411Z,13.75
2023-05-21T09:26:12.700Z,14.40
2023-05-21T09:29:00.773Z,14.73
2023-05-21T09:31:48.230Z,13.20
2023-05-21T09:34:36.902Z,13.40
2023-05-21T09:37:27.678Z,13.70
2023-05-21T09:40:20.079Z,14.15
2023-05-21T09:43:07.137Z,14.75
2023-05-21T09:45:58.357Z,13.85
2023-05-21T09:48:49.768Z,13.95
2023-05-21T09:51:39.508Z,13.80
2023-05-21T09:54:33.270Z,13.75
2023-05-21T09:57:26.722Z,14.82
2023-05-21T10:00:24.654Z,13.63
2023-05-21T10:03:14.905Z,13.52
2023-05-21T10:06:02.789Z,14.10
2023-05-21T10:08:53.466Z,14.45
2023-05-21T10:11:44.101Z,14.43
2023-05-21T10:14:34.143Z,14.70
2023-05-21T10:17:22.003Z,14.05
2023-05-21T10:20:11.089Z,14.10
2023-05-21T10:22:59.280Z,15.48
2023-05-21T10:25:47.170Z,13.88
2023-05-21T10:28:34.851Z,13.65
2023-05-21T10:31:23.120Z,15.05
2023-05-21T10:34:12.084Z,14.18
2023-05-21T10:37:02.517Z,15.75
2023-05-21T10:39:50.596Z,14.98
2023-05-21T10:43:10.835Z,15.60
2023-05-21T10:45:57.887Z,14.63
2023-05-21T10:49:10.977Z,15.70
2023-05-21T10:52:28.132Z,15.13
2023-05-21T10:55:36.459Z,15.10
2023-05-21T10:59:04.049Z,15.48
2023-05-21T11:01:56.162Z,14.45
2023-05-21T11:04:48.991Z,14.88
2023-05-21T11:07:58.255Z,19.02
2023-05-21T11:10:55.769Z,14.95
2023-05-21T11:13:51.474Z,16.23
2023-05-21T11:16:45.711Z,17.58
2023-05-21T11:19:43.329Z,16.40
2023-05-21T11:22:31.568Z,16.13
2023-05-21T11:25:18.920Z,16.63
2023-05-21T11:28:09.288Z,16.65
2023-05-21T11:31:25.796Z,17.27
2023-05-21T11:34:21.785Z,16.42
2023-05-21T11:37:18.188Z,16.25
2023-05-21T11:40:26.207Z,19.05
2023-05-21T11:43:13.416Z,17.60
2023-05-21T11:46:00.918Z,15.65
2023-05-21T11:48:49.402Z,18.15
2023-05-21T11:51:36.793Z,17.33
2023-05-21T11:54:25.826Z,17.55
2023-05-21T11:57:18.651Z,18.15
2023-05-21T12:00:14.000Z,17.23
2023-05-21T12:03:01.911Z,16.17
2023-05-21T12:05:49.990Z,16.75
2023-05-21T12:08:38.362Z,15.88
2023-05-21T12:11:27.376Z,20.30
2023-05-21T12:14:14.854Z,18.73
2023-05-21T12:17:06.859Z,24.58
2023-05-21T12:19:56.764Z,17.15
2023-05-21T12:22:44.890Z,15.65
2023-05-21T12:25:32.254Z,15.88
2023-05-21T12:28:21.882Z,16.48
2023-05-21T12:31:15.174Z,16.17
2023-05-21T12:34:02.286Z,15.27
2023-05-21T12:36:50.941Z,15.65
2023-05-21T12:39:39.354Z,15.82
2023-05-21T12:42:27.396Z,15.27
2023-05-21T12:45:14.955Z,16.05
2023-05-21T12:48:03.103Z,14.95
2023-05-21T12:50:52.438Z,14.65
2023-05-21T12:53:41.898Z,14.35
2023-05-21T12:56:44.342Z,15.00
2023-05-21T12:59:44.079Z,15.18
2023-05-21T13:02:41.990Z,13.95
2023-05-21T13:05:30.341Z,13.57
2023-05-21T13:08:17.436Z,14.65
2023-05-21T13:11:04.815Z,14.82
2023-05-21T13:13:51.905Z,14.73
2023-05-21T13:16:38.992Z,15.35
2023-05-21T13:19:26.426Z,14.32
2023-05-21T13:22:13.721Z,14.25
2023-05-21T13:25:01.396Z,15.35
2023-05-21T13:27:50.046Z,14.32
2023-05-21T13:30:37.498Z,14.25
2023-05-21T13:33:24.900Z,14.63
2023-05-21T13:36:12.231Z,14.55
2023-05-21T13:38:59.348Z,14.90
2023-05-21T13:41:47.660Z,13.48
2023-05-21T13:44:36.462Z,13.98
2023-05-21T13:47:23.884Z,13.10
2023-05-21T13:50:11.668Z,13.98
2023-05-21T13:52:58.733Z,13.20
2023-05-21T13:55:45.887Z,13.02
2023-05-21T13:58:34.610Z,13.30
2023-05-21T14:01:21.730Z,13.68
2023-05-21T14:04:08.892Z,20.48
2023-05-21T14:06:56.730Z,13.15
2023-05-21T14:09:43.850Z,12.77
2023-05-21T14:12:31.226Z,13.05
2023-05-21T14:15:18.482Z,12.85
2023-05-21T14:18:08.045Z,12.73
2023-05-21T14:25:06.853Z,12.82
2023-05-21T14:27:53.342Z,12.82
2023-05-21T14:30:38.573Z,13.52
2023-05-21T14:33:23.994Z,13.90
2023-05-21T14:36:09.233Z,13.05
2023-05-21T14:38:54.787Z,13.23
2023-05-21T14:41:40.448Z,13.90
2023-05-21T14:44:26.564Z,13.45
2023-05-21T14:47:11.965Z,13.15
2023-05-21T14:49:57.438Z,12.60
2023-05-21T14:52:43.169Z,13.00
2023-05-21T14:55:29.646Z,12.27
2023-05-21T14:58:14.907Z,13.35
2023-05-21T15:01:00.669Z,13.23
2023-05-21T15:03:46.197Z,12.63
2023-05-21T15:06:32.754Z,12.88
2023-05-21T15:09:18.547Z,12.55
2023-05-21T15:12:04.082Z,13.93
2023-05-21T15:14:49.999Z,12.07
2023-05-21T15:17:36.039Z,12.30
2023-05-21T15:20:21.954Z,11.40
2023-05-21T15:23:16.889Z,11.40
2023-05-21T15:26:03.386Z,11.13
2023-05-21T15:28:48.909Z,11.25
2023-05-21T15:31:34.503Z,10.27
2023-05-21T15:34:20.212Z,10.13
2023-05-21T15:37:05.734Z,10.80
2023-05-21T15:39:51.086Z,9.65
2023-05-21T15:42:36.543Z,9.95
2023-05-21T15:45:22.082Z,10.68
2023-05-21T15:48:07.808Z,9.68
2023-05-21T15:50:53.057Z,9.35
2023-05-21T15:53:38.656Z,9.02
2023-05-21T15:56:24.280Z,9.20
2023-05-21T15:59:09.720Z,9.27
2023-05-21T16:01:56.236Z,9.07
2023-05-21T16:04:42.047Z,9.65
2023-05-21T16:07:27.489Z,8.98
2023-05-21T16:10:13.045Z,9.40
2023-05-21T16:12:58.625Z,9.32
2023-05-21T16:15:44.405Z,9.20
2023-05-21T16:18:29.660Z,9.25
2023-05-21T16:21:15.785Z,9.30
2023-05-21T16:24:01.492Z,9.52
2023-05-21T16:26:47.424Z,9.65
2023-05-21T16:29:33.144Z,9.38
2023-05-21T16:32:18.909Z,9.13
2023-05-21T16:35:04.700Z,9.57
2023-05-21T16:37:50.275Z,10.02
2023-05-21T16:40:35.657Z,9.80
2023-05-21T16:43:21.447Z,9.65
2023-05-21T16:46:06.718Z,10.10
2023-05-21T16:48:52.009Z,10.00
2023-05-21T16:51:37.595Z,9.75
2023-05-21T16:54:22.967Z,9.77
2023-05-21T16:57:08.254Z,10.23
2023-05-21T16:59:53.557Z,10.50
2023-05-21T17:02:39.149Z,9.43
2023-05-21T17:05:26.311Z,10.23
2023-05-21T17:08:12.146Z,10.57
2023-05-21T17:10:58.286Z,10.00
2023-05-21T17:13:47.930Z,10.38
2023-05-21T17:16:33.733Z,10.10
2023-05-21T17:19:19.388Z,10.18
2023-05-21T17:22:04.888Z,9.98
2023-05-21T17:24:50.196Z,10.18
2023-05-21T17:27:35.768Z,10.05
2023-05-21T17:30:21.179Z,9.07
2023-05-21T17:33:07.752Z,10.50
2023-05-21T17:35:53.747Z,10.80
2023-05-21T17:38:39.382Z,10.40
2023-05-21T17:41:26.076Z,10.50
2023-05-21T17:44:13.572Z,10.25
2023-05-21T17:46:58.819Z,10.55
2023-05-21T17:49:44.229Z,10.68
2023-05-21T17:52:29.705Z,10.65
2023-05-21T17:55:15.216Z,11.07
2023-05-21T17:58:00.723Z,10.75
2023-05-21T18:00:46.120Z,10.23
2023-05-21T18:03:31.958Z,11.57
2023-05-21T18:06:17.598Z,10.95
2023-05-21T18:09:03.303Z,11.20
2023-05-21T18:11:49.150Z,10.90
2023-05-21T18:14:34.573Z,11.85
2023-05-21T18:17:20.088Z,10.75
2023-05-21T18:20:06.064Z,10.32
2023-05-21T18:22:51.754Z,10.93
2023-05-21T18:25:37.403Z,11.43
2023-05-21T18:28:22.806Z,11.05
2023-05-21T18:31:08.464Z,11.60
2023-05-21T18:33:53.878Z,10.48
2023-05-21T18:36:40.063Z,10.40
2023-05-21T18:39:26.863Z,11.50
2023-05-21T18:42:13.942Z,10.30
2023-05-21T18:45:06.716Z,10.98
2023-05-21T18:47:52.141Z,10.95
2023-05-21T18:50:38.472Z,11.15
2023-05-21T18:53:23.980Z,11.20
2023-05-21T18:56:10.203Z,11.05
2023-05-21T18:58:55.872Z,10.95
2023-05-21T19:01:41.353Z,12.60
2023-05-21T19:04:27.337Z,11.32
2023-05-21T19:07:13.009Z,11.07
2023-05-21T19:10:00.185Z,10.75
2023-05-21T19:12:46.338Z,11.13
2023-05-21T19:15:32.118Z,10.30
2023-05-21T19:18:17.721Z,11.45
2023-05-21T19:21:03.877Z,11.25
2023-05-21T19:23:53.168Z,11.60
2023-05-21T19:26:39.500Z,12.55
2023-05-21T19:29:25.619Z,11.63
2023-05-21T19:32:12.448Z,11.77
2023-05-21T19:34:58.309Z,12.00
2023-05-21T19:37:44.108Z,10.57
2023-05-21T19:40:30.386Z,11.35
2023-05-21T19:43:16.227Z,11.05
2023-05-21T19:46:01.622Z,11.68
2023-05-21T19:48:46.939Z,11.32
2023-05-21T19:51:32.403Z,12.20
2023-05-21T19:54:18.521Z,11.13
2023-05-21T19:57:04.678Z,11.13
2023-05-21T19:59:50.038Z,11.57
2023-05-21T20:02:35.461Z,11.88
2023-05-21T20:05:21.053Z,12.75
2023-05-21T20:08:06.169Z,12.82
2023-05-21T20:10:52.252Z,13.70
2023-05-21T20:13:37.633Z,11.50
2023-05-21T20:16:23.293Z,12.40
2023-05-21T20:19:10.573Z,12.00
2023-05-21T20:21:56.685Z,11.50
2023-05-21T20:24:42.995Z,11.85
2023-05-21T20:27:28.617Z,11.27
2023-05-21T20:30:14.126Z,13.20
2023-05-21T20:33:01.834Z,12.35
2023-05-21T20:35:47.549Z,12.23
2023-05-21T20:38:33.195Z,11.85
2023-05-21T20:41:20.057Z,12.15
2023-05-21T20:44:06.510Z,11.48
2023-05-21T20:46:52.559Z,12.57
2023-05-21T20:49:38.230Z,12.23
2023-05-21T20:52:24.855Z,12.07
2023-05-21T20:55:12.626Z,12.57
2023-05-21T20:57:58.034Z,11.82
2023-05-21T21:00:44.831Z,12.05
2023-05-21T21:03:34.193Z,12.27
2023-05-21T21:06:20.085Z,11.88
2023-05-21T21:09:05.546Z,12.52
2023-05-21T21:11:51.381Z,12.13
2023-05-21T21:14:36.813Z,12.05
2023-05-21T21:17:22.362Z,11.70
2023-05-21T21:20:09.858Z,12.25
2023-05-21T21:22:55.744Z,13.07
2023-05-21T21:25:41.192Z,12.77
2023-05-21T21:28:26.734Z,13.00
2023-05-21T21:31:12.085Z,14.70
2023-05-21T21:33:58.008Z,13.32
2023-05-21T21:36:43.736Z,12.50
2023-05-21T21:39:29.129Z,12.07
2023-05-21T21:42:14.757Z,12.32
2023-05-21T21:45:00.193Z,13.00
2023-05-21T21:47:45.569Z,11.20
2023-05-21T21:50:31.098Z,12.57
2023-05-21T21:53:16.800Z,13.40
2023-05-21T21:56:02.323Z,12.02
2023-05-21T21:58:47.787Z,11.27
2023-05-21T22:01:33.625Z,11.85
2023-05-21T22:04:19.043Z,12.30
2023-05-21T22:07:04.630Z,11.68
2023-05-21T22:09:49.971Z,11.43
2023-05-21T22:12:35.284Z,11.35
2023-05-21T22:15:27.473Z,11.05
2023-05-21T22:18:13.112Z,11.45
2023-05-21T22:20:59.705Z,11.68
2023-05-21T22:23:45.460Z,10.82
2023-05-21T22:26:31.397Z,11.75
2023-05-21T22:29:16.734Z,11.18
2023-05-21T22:32:02.145Z,11.02
2023-05-21T22:34:47.504Z,10.65
2023-05-21T22:37:32.969Z,10.27
2023-05-21T22:40:18.658Z,12.02
2023-05-21T22:43:04.620Z,9.70
2023-05-21T22:45:50.100Z,10.93
2023-05-21T22:48:37.292Z,11.25
2023-05-21T22:51:22.747Z,11.10
2023-05-21T22:54:08.299Z,10.80
2023-05-21T22:56:53.625Z,11.35
2023-05-21T22:59:39.129Z,11.07
2023-05-21T23:02:24.819Z,10.77
2023-05-21T23:05:10.303Z,11.50
2023-05-21T23:07:55.751Z,11.90
2023-05-21T23:10:41.454Z,11.07
2023-05-21T23:13:27.025Z,10.80
2023-05-21T23:16:12.769Z,12.38
2023-05-21T23:18:58.356Z,11.43
2023-05-21T23:21:43.997Z,11.32
2023-05-21T23:24:29.465Z,11.35
2023-05-21T23:27:15.631Z,10.70
2023-05-21T23:30:01.157Z,11.90
2023-05-21T23:32:46.702Z,11.48
2023-05-21T23:35:32.255Z,11.15
2023-05-21T23:38:17.758Z,12.20
2023-05-21T23:41:02.864Z,10.65
2023-05-21T23:43:48.485Z,11.30
2023-05-21T23:46:34.094Z,11.25
2023-05-21T23:49:19.618Z,11.73
2023-05-21T23:52:05.779Z,11.32
2023-05-21T23:54:51.801Z,10.73
2023-05-21T23:57:37.534Z,11.20
